^^
Saratoga-Weather Station Historical Data
Daily Summary for June 7, 2021 Units:  English    Metric   Both
Daily Weekly Monthly Yearly Custom
  High: Low: Average:
Temperature: 34.9 °F 32.2 °F 33.6 °F
Dew Point: 32.2 °F 30.4 °F 31.3 °F
Humidity: 95% 88% 91%
Wind Speed: 4mph 0mph 1.2mph
Wind Gust: 8mph - -
Wind- - West
Pressure: 30 in 30 in -
Precipitation: 0 in    
Historical Graphs
 
 
Tabular Data for June 7, 2021
Time Temperature Dew Point Pressure Wind Wind Speed Wind Gust Humidity Rainfall Rate (Hourly) solar
00:04 34.9 °F 32 °F 30 in WSW 0.9 mph 3 mph 89% 0 in 0 W/m2
00:09 34.9 °F 32 °F 30 in WSW 2.9 mph 3 mph 89% 0 in 0 W/m2
00:14 34.7 °F 31.8 °F 30 in WSW 0.9 mph 2 mph 89% 0 in 0 W/m2
00:19 34.5 °F 31.6 °F 30 in WSW 0.9 mph 1 mph 89% 0 in 0 W/m2
00:24 34.5 °F 31.8 °F 30 in Calm   2 mph 90% 0 in 0 W/m2
00:29 34.3 °F 31.6 °F 30 in Calm   2 mph 90% 0 in 0 W/m2
00:34 34.2 °F 31.5 °F 30 in WSW 0.9 mph 2 mph 90% 0 in 0 W/m2
00:39 34.2 °F 31.5 °F 30 in SW 0.9 mph 2 mph 90% 0 in 0 W/m2
00:44 34.2 °F 31.5 °F 30 in SW 2 mph 2 mph 90% 0 in 0 W/m2
00:49 34.2 °F 31.5 °F 30 in Calm     90% 0 in 0 W/m2
00:54 34.2 °F 31.8 °F 30 in Calm     91% 0 in 0 W/m2
00:59 34.2 °F 31.8 °F 30 in Calm     91% 0 in 0 W/m2
01:04 34.2 °F 31.8 °F 30 in Calm     91% 0 in 0 W/m2
01:09 34.2 °F 32 °F 30 in Calm     92% 0 in 0 W/m2
01:14 34 °F 31.8 °F 30 in Calm     92% 0 in 0 W/m2
01:20 34 °F 31.8 °F 30 in Calm     92% 0 in 0 W/m2
01:25 34 °F 32.2 °F 30 in WSW 2 mph 2 mph 93% 0 in 0 W/m2
01:30 34 °F 32.2 °F 30 in WNW 2.9 mph 3 mph 93% 0 in 0 W/m2
01:35 34 °F 32.2 °F 30 in WNW 0.9 mph 1 mph 93% 0 in 0 W/m2
01:40 34 °F 32.2 °F 30 in WNW 0.9 mph 2 mph 93% 0 in 0 W/m2
01:45 34 °F 32.2 °F 30 in WNW 0.9 mph 1 mph 93% 0 in 0 W/m2
01:50 34 °F 32.2 °F 30 in WNW 2 mph 4 mph 93% 0 in 0 W/m2
01:55 34.2 °F 31.8 °F 30 in West 2.9 mph 6 mph 91% 0 in 0 W/m2
02:00 34.3 °F 31.5 °F 30 in West 2 mph 6 mph 89% 0 in 0 W/m2
02:05 34.5 °F 31.3 °F 30 in West 2 mph 4 mph 88% 0 in 0 W/m2
02:10 34.5 °F 31.3 °F 30 in West 2 mph 4 mph 88% 0 in 0 W/m2
02:15 34.5 °F 31.3 °F 30 in WSW 0.9 mph 3 mph 88% 0 in 0 W/m2
02:20 34.5 °F 31.3 °F 30 in WSW 2 mph 4 mph 88% 0 in 0 W/m2
02:25 34.3 °F 31.1 °F 30 in WNW 2.9 mph 3 mph 88% 0 in 0 W/m2
02:30 34.3 °F 31.1 °F 30 in WNW 0.9 mph 4 mph 88% 0 in 0 W/m2
02:35 34.3 °F 31.1 °F 30 in WNW 0.9 mph 2 mph 88% 0 in 0 W/m2
02:40 34.2 °F 30.9 °F 30 in Calm   1 mph 88% 0 in 0 W/m2
02:45 34 °F 31.1 °F 30 in Calm   2 mph 89% 0 in 0 W/m2
02:50 34 °F 31.1 °F 30 in Calm     89% 0 in 0 W/m2
02:55 33.6 °F 30.7 °F 30 in Calm   1 mph 89% 0 in 0 W/m2
03:00 33.4 °F 30.6 °F 30 in Calm   1 mph 89% 0 in 0 W/m2
03:05 33.1 °F 30.4 °F 30 in West 0.9 mph 3 mph 90% 0 in 0 W/m2
03:10 33.1 °F 30.4 °F 30 in West 2 mph 3 mph 90% 0 in 0 W/m2
03:15 33.1 °F 30.7 °F 30 in WSW 2.9 mph 4 mph 91% 0 in 0 W/m2
03:20 33.4 °F 31.1 °F 30 in WSW 2.9 mph 3 mph 91% 0 in 0 W/m2
03:25 34 °F 31.6 °F 30 in WSW 2 mph 6 mph 91% 0 in 0 W/m2
03:30 34.2 °F 31.5 °F 30 in WSW 0.9 mph 3 mph 90% 0 in 0 W/m2
03:35 34.2 °F 31.5 °F 30 in WNW 2 mph 3 mph 90% 0 in 0 W/m2
03:40 34.3 °F 31.6 °F 30 in WNW 0.9 mph 4 mph 90% 0 in 0 W/m2
03:45 34.3 °F 32 °F 30 in West 2 mph 4 mph 91% 0 in 0 W/m2
03:50 34.3 °F 32 °F 30 in WNW 2 mph 3 mph 91% 0 in 0 W/m2
03:55 34.3 °F 32 °F 30 in WNW 0.9 mph 3 mph 91% 0 in 0 W/m2
04:01 34.2 °F 31.8 °F 30 in WNW 0.9 mph 2 mph 91% 0 in 0 W/m2
04:06 34 °F 31.6 °F 30 in West 2 mph 4 mph 91% 0 in 0 W/m2
04:11 34.2 °F 31.8 °F 30 in WNW 4 mph 6 mph 91% 0 in 0 W/m2
04:16 34.2 °F 32 °F 30 in WNW 0.9 mph 4 mph 92% 0 in 0 W/m2
04:21 34.2 °F 32 °F 30 in WSW 2 mph 5 mph 92% 0 in 0 W/m2
04:26 34.2 °F 32 °F 30 in West 2.9 mph 3 mph 92% 0 in 0 W/m2
04:31 34.2 °F 32 °F 30 in WNW 0.9 mph 5 mph 92% 0 in 0 W/m2
04:36 34 °F 31.8 °F 30 in West 0.9 mph 6 mph 92% 0 in 0 W/m2
04:41 34 °F 31.8 °F 30 in WNW 2 mph 4 mph 92% 0 in 0 W/m2
04:46 33.8 °F 31.6 °F 30 in WSW 2 mph 4 mph 92% 0 in 0 W/m2
04:51 33.6 °F 31.5 °F 30 in West 2 mph 3 mph 92% 0 in 0 W/m2
04:56 33.6 °F 31.5 °F 30 in West 0.9 mph 4 mph 92% 0 in 0 W/m2
05:01 33.4 °F 31.3 °F 30 in NW 2 mph 2 mph 92% 0 in 0 W/m2
05:06 33.4 °F 31.3 °F 30 in West 2 mph 4 mph 92% 0 in 0 W/m2
05:11 33.4 °F 31.3 °F 30 in WSW 4 mph 8 mph 92% 0 in 0 W/m2
05:16 33.4 °F 31.3 °F 30 in West 2.9 mph 4 mph 92% 0 in 0 W/m2
05:21 33.4 °F 31.3 °F 30 in West 2.9 mph 4 mph 92% 0 in 0 W/m2
05:26 33.4 °F 31.3 °F 30 in West 2.9 mph 4 mph 92% 0 in 0 W/m2
05:31 33.3 °F 31.1 °F 30 in West 2 mph 4 mph 92% 0 in 0 W/m2
05:36 33.3 °F 31.1 °F 30 in WNW 2 mph 4 mph 92% 0 in 0 W/m2
05:41 33.3 °F 31.1 °F 30 in WNW 2.9 mph 4 mph 92% 0 in 0 W/m2
05:46 33.3 °F 30.9 °F 30 in WNW 0.9 mph 4 mph 91% 0 in 0 W/m2
05:51 33.3 °F 30.9 °F 30 in West 2 mph 3 mph 91% 0 in 0 W/m2
05:56 33.3 °F 30.9 °F 30 in West 2 mph 4 mph 91% 0 in 0 W/m2
06:01 33.3 °F 30.9 °F 30 in West 2 mph 7 mph 91% 0 in 0 W/m2
06:06 33.3 °F 30.9 °F 30 in West 2 mph 3 mph 91% 0 in 0 W/m2
06:11 33.3 °F 30.9 °F 30 in WSW 2 mph 4 mph 91% 0 in 0 W/m2
06:16 33.3 °F 30.9 °F 30 in WSW 0.9 mph 3 mph 91% 0 in 0 W/m2
06:21 33.3 °F 30.9 °F 30 in West 0.9 mph 3 mph 91% 0 in 0 W/m2
06:26 33.1 °F 30.7 °F 30 in Calm   1 mph 91% 0 in 0 W/m2
06:31 32.9 °F 30.6 °F 30 in Calm     91% 0 in 0 W/m2
06:36 32.7 °F 30.4 °F 30 in Calm   1 mph 91% 0 in 0 W/m2
06:41 32.7 °F 30.4 °F 30 in Calm     91% 0 in 0 W/m2
06:46 32.5 °F 30.6 °F 30 in Calm   1 mph 92% 0 in 0 W/m2
06:51 32.5 °F 30.6 °F 30 in Calm     92% 0 in 0 W/m2
06:56 32.5 °F 30.6 °F 30 in Calm   1 mph 92% 0 in 0 W/m2
07:01 32.4 °F 30.6 °F 30 in Calm     93% 0 in 0 W/m2
07:06 32.4 °F 30.6 °F 30 in Calm     93% 0 in 0 W/m2
07:11 32.2 °F 30.4 °F 30 in Calm     93% 0 in 0 W/m2
07:16 32.2 °F 30.4 °F 30 in Calm     93% 0 in 0 W/m2
07:21 32.2 °F 30.4 °F 30 in Calm   1 mph 93% 0 in 0 W/m2
07:26 32.2 °F 30.6 °F 30 in West 0.9 mph 1 mph 94% 0 in 0 W/m2
07:31 32.2 °F 30.6 °F 30 in West 0.9 mph 1 mph 94% 0 in 0 W/m2
07:36 32.2 °F 30.6 °F 30 in Calm   1 mph 94% 0 in 0 W/m2
07:41 32.2 °F 30.6 °F 30 in Calm     94% 0 in 0 W/m2
07:46 32.4 °F 30.7 °F 30 in SW 0.9 mph 1 mph 94% 0 in 0 W/m2
07:51 32.5 °F 30.9 °F 30 in WSW 2 mph 2 mph 94% 0 in 0 W/m2
07:56 32.7 °F 31.5 °F 30 in West 0.9 mph 3 mph 95% 0 in 0 W/m2
08:01 33.1 °F 31.8 °F 30 in West 2.9 mph 4 mph 95% 0 in 0 W/m2
08:06 33.3 °F 32 °F 30 in West 0.9 mph 2 mph 95% 0 in 0 W/m2
08:11 33.4 °F 31.8 °F 30 in West 0.9 mph 3 mph 94% 0 in 0 W/m2
08:16 33.6 °F 32 °F 30 in West 2 mph 4 mph 94% 0 in 0 W/m2
08:21 33.8 °F 32.2 °F 30 in West 0.9 mph 2 mph 94% 0 in 0 W/m2
08:26 33.8 °F 32 °F 30 in WSW 0.9 mph 3 mph 93% 0 in 0 W/m2
Juneau County Weather
Compliments of Weather Underground - 2 mb